Hopewell Township, New Jersey
Current Conditions -  °F | °C
As of 10:53 PM on Wednesday 26 Nov 2014 (Local Time) from KTTN Reporting Station
Overcast Overcast  
Wind Chill: -2°   Ceiling: 6000
Heat Index:   Visibility: 10mi
Dew Point: -1°   Wind: 9mph
Humidity: 85%   Direction: 330°NNW
Pressure: 29.85"   Gusts: NA
Location:  40.3975°N, 74.7746°W
Report Text: KTTN 270353Z AUTO 33008KT 10SM OVC060 02/M01 A2985 RMK AO2 SNE0254 SLP106 P0003 T00171006
Loading
Personal Weather Stations






























Interactive Weather Map New forecast layout! Learn more

10-Day Weather Forecast

Advertisements
Track Severe Weather on mobile